sensor_id;sensor_type;location;lat;lon;timestamp;P1;durP1;ratioP1;P2;durP2;ratioP2
39890;SDS011;25564;53.312;9.790;2024-02-21T00:02:27;32.38;;;11.40;;
39890;SDS011;25564;53.312;9.790;2024-02-21T00:04:59;29.60;;;10.93;;
39890;SDS011;25564;53.312;9.790;2024-02-21T00:07:30;27.80;;;11.27;;
39890;SDS011;25564;53.312;9.790;2024-02-21T00:10:02;32.00;;;12.17;;
39890;SDS011;25564;53.312;9.790;2024-02-21T00:12:34;28.27;;;11.60;;
39890;SDS011;25564;53.312;9.790;2024-02-21T00:15:06;24.93;;;11.00;;
39890;SDS011;25564;53.312;9.790;2024-02-21T00:17:37;30.50;;;11.37;;
39890;SDS011;25564;53.312;9.790;2024-02-21T00:20:09;31.10;;;10.90;;
39890;SDS011;25564;53.312;9.790;2024-02-21T00:22:41;25.70;;;12.10;;
39890;SDS011;25564;53.312;9.790;2024-02-21T00:25:13;29.43;;;11.87;;
39890;SDS011;25564;53.312;9.790;2024-02-21T00:27:44;26.57;;;11.27;;
39890;SDS011;25564;53.312;9.790;2024-02-21T00:30:16;29.27;;;11.90;;
39890;SDS011;25564;53.312;9.790;2024-02-21T00:32:47;23.30;;;11.50;;
39890;SDS011;25564;53.312;9.790;2024-02-21T00:35:19;32.20;;;11.53;;
39890;SDS011;25564;53.312;9.790;2024-02-21T00:37:51;23.13;;;11.27;;
39890;SDS011;25564;53.312;9.790;2024-02-21T00:40:23;29.23;;;11.50;;
39890;SDS011;25564;53.312;9.790;2024-02-21T00:42:54;30.83;;;12.63;;
39890;SDS011;25564;53.312;9.790;2024-02-21T00:45:26;29.00;;;10.97;;
39890;SDS011;25564;53.312;9.790;2024-02-21T00:47:57;28.23;;;11.37;;
39890;SDS011;25564;53.312;9.790;2024-02-21T00:50:29;29.57;;;11.70;;
39890;SDS011;25564;53.312;9.790;2024-02-21T00:53:00;31.97;;;13.33;;
39890;SDS011;25564;53.312;9.790;2024-02-21T00:55:32;30.63;;;11.53;;
39890;SDS011;25564;53.312;9.790;2024-02-21T00:58:04;26.60;;;12.07;;
39890;SDS011;25564;53.312;9.790;2024-02-21T01:00:35;29.80;;;12.67;;
39890;SDS011;25564;53.312;9.790;2024-02-21T01:03:07;26.50;;;11.83;;
39890;SDS011;25564;53.312;9.790;2024-02-21T01:05:39;23.50;;;10.70;;
39890;SDS011;25564;53.312;9.790;2024-02-21T01:08:10;31.90;;;12.77;;
39890;SDS011;25564;53.312;9.790;2024-02-21T01:10:41;26.77;;;12.17;;
39890;SDS011;25564;53.312;9.790;2024-02-21T01:13:14;31.13;;;11.43;;
39890;SDS011;25564;53.312;9.790;2024-02-21T01:15:45;24.63;;;11.63;;
39890;SDS011;25564;53.312;9.790;2024-02-21T01:18:18;35.87;;;11.83;;
39890;SDS011;25564;53.312;9.790;2024-02-21T01:20:49;29.10;;;12.17;;
39890;SDS011;25564;53.312;9.790;2024-02-21T01:23:21;28.80;;;11.47;;
39890;SDS011;25564;53.312;9.790;2024-02-21T01:25:52;28.17;;;12.13;;
39890;SDS011;25564;53.312;9.790;2024-02-21T01:28:24;27.97;;;12.17;;
39890;SDS011;25564;53.312;9.790;2024-02-21T01:30:56;26.63;;;11.13;;
39890;SDS011;25564;53.312;9.790;2024-02-21T01:33:28;31.43;;;12.80;;
39890;SDS011;25564;53.312;9.790;2024-02-21T01:36:02;33.57;;;13.23;;
39890;SDS011;25564;53.312;9.790;2024-02-21T01:38:34;26.60;;;12.70;;
39890;SDS011;25564;53.312;9.790;2024-02-21T01:41:06;30.37;;;12.73;;
39890;SDS011;25564;53.312;9.790;2024-02-21T01:43:37;26.27;;;13.00;;
39890;SDS011;25564;53.312;9.790;2024-02-21T01:46:09;32.60;;;12.70;;
39890;SDS011;25564;53.312;9.790;2024-02-21T01:48:40;31.17;;;12.77;;
39890;SDS011;25564;53.312;9.790;2024-02-21T01:51:12;30.00;;;12.43;;
39890;SDS011;25564;53.312;9.790;2024-02-21T01:53:44;35.97;;;13.27;;
39890;SDS011;25564;53.312;9.790;2024-02-21T01:56:17;34.13;;;13.70;;
39890;SDS011;25564;53.312;9.790;2024-02-21T01:58:48;34.80;;;14.77;;
39890;SDS011;25564;53.312;9.790;2024-02-21T02:01:21;32.73;;;14.67;;
39890;SDS011;25564;53.312;9.790;2024-02-21T02:03:53;36.27;;;14.70;;
39890;SDS011;25564;53.312;9.790;2024-02-21T02:06:25;39.23;;;14.43;;
39890;SDS011;25564;53.312;9.790;2024-02-21T02:08:57;36.77;;;15.00;;
39890;SDS011;25564;53.312;9.790;2024-02-21T02:11:31;34.43;;;13.60;;
39890;SDS011;25564;53.312;9.790;2024-02-21T02:14:03;34.23;;;14.23;;
39890;SDS011;25564;53.312;9.790;2024-02-21T02:16:35;38.10;;;15.23;;
39890;SDS011;25564;53.312;9.790;2024-02-21T02:19:07;43.90;;;15.50;;
39890;SDS011;25564;53.312;9.790;2024-02-21T02:21:46;41.30;;;15.55;;
39890;SDS011;25564;53.312;9.790;2024-02-21T02:24:27;32.37;;;14.83;;
39890;SDS011;25564;53.312;9.790;2024-02-21T02:30:50;33.47;;;14.03;;
39890;SDS011;25564;53.312;9.790;2024-02-21T02:33:22;33.90;;;14.53;;
39890;SDS011;25564;53.312;9.790;2024-02-21T02:35:53;39.10;;;15.23;;
39890;SDS011;25564;53.312;9.790;2024-02-21T02:38:25;34.27;;;14.07;;
39890;SDS011;25564;53.312;9.790;2024-02-21T02:40:56;36.93;;;14.43;;
39890;SDS011;25564;53.312;9.790;2024-02-21T02:43:28;39.07;;;15.23;;
39890;SDS011;25564;53.312;9.790;2024-02-21T02:45:59;29.67;;;13.00;;
39890;SDS011;25564;53.312;9.790;2024-02-21T02:48:31;36.27;;;13.03;;
39890;SDS011;25564;53.312;9.790;2024-02-21T02:51:02;32.47;;;13.67;;
39890;SDS011;25564;53.312;9.790;2024-02-21T02:53:34;31.10;;;14.27;;
39890;SDS011;25564;53.312;9.790;2024-02-21T02:56:05;32.37;;;13.23;;
39890;SDS011;25564;53.312;9.790;2024-02-21T02:58:36;37.70;;;14.73;;
39890;SDS011;25564;53.312;9.790;2024-02-21T03:01:08;32.87;;;13.53;;
39890;SDS011;25564;53.312;9.790;2024-02-21T03:03:39;29.97;;;13.90;;
39890;SDS011;25564;53.312;9.790;2024-02-21T03:06:12;38.80;;;14.53;;
39890;SDS011;25564;53.312;9.790;2024-02-21T03:08:43;35.80;;;14.30;;
39890;SDS011;25564;53.312;9.790;2024-02-21T03:11:14;35.80;;;14.33;;
39890;SDS011;25564;53.312;9.790;2024-02-21T03:13:46;32.77;;;13.43;;
39890;SDS011;25564;53.312;9.790;2024-02-21T03:16:17;36.13;;;13.90;;
39890;SDS011;25564;53.312;9.790;2024-02-21T03:18:49;36.27;;;14.10;;
39890;SDS011;25564;53.312;9.790;2024-02-21T03:21:20;32.07;;;13.77;;
39890;SDS011;25564;53.312;9.790;2024-02-21T03:23:52;33.33;;;14.30;;
39890;SDS011;25564;53.312;9.790;2024-02-21T03:26:24;31.17;;;13.50;;
39890;SDS011;25564;53.312;9.790;2024-02-21T03:28:55;34.47;;;13.70;;
39890;SDS011;25564;53.312;9.790;2024-02-21T03:31:27;34.60;;;13.67;;
39890;SDS011;25564;53.312;9.790;2024-02-21T03:34:02;32.95;;;13.30;;
39890;SDS011;25564;53.312;9.790;2024-02-21T03:36:37;39.03;;;12.60;;
39890;SDS011;25564;53.312;9.790;2024-02-21T03:39:09;32.83;;;14.10;;
39890;SDS011;25564;53.312;9.790;2024-02-21T03:41:40;28.03;;;13.07;;
39890;SDS011;25564;53.312;9.790;2024-02-21T03:44:11;34.43;;;13.83;;
39890;SDS011;25564;53.312;9.790;2024-02-21T03:46:43;26.10;;;11.70;;
39890;SDS011;25564;53.312;9.790;2024-02-21T03:49:14;32.63;;;12.87;;
39890;SDS011;25564;53.312;9.790;2024-02-21T03:51:46;30.53;;;13.13;;
39890;SDS011;25564;53.312;9.790;2024-02-21T03:54:18;32.30;;;12.50;;
39890;SDS011;25564;53.312;9.790;2024-02-21T03:56:50;29.43;;;13.53;;
39890;SDS011;25564;53.312;9.790;2024-02-21T03:59:45;32.07;;;13.30;;
39890;SDS011;25564;53.312;9.790;2024-02-21T04:02:19;28.93;;;11.93;;
39890;SDS011;25564;53.312;9.790;2024-02-21T04:04:51;37.00;;;13.27;;
39890;SDS011;25564;53.312;9.790;2024-02-21T04:07:22;33.83;;;12.30;;
39890;SDS011;25564;53.312;9.790;2024-02-21T04:09:54;32.67;;;12.93;;
39890;SDS011;25564;53.312;9.790;2024-02-21T04:12:25;31.67;;;13.17;;
39890;SDS011;25564;53.312;9.790;2024-02-21T04:14:57;27.73;;;12.40;;
39890;SDS011;25564;53.312;9.790;2024-02-21T04:17:28;30.53;;;13.53;;
39890;SDS011;25564;53.312;9.790;2024-02-21T04:20:03;30.67;;;12.47;;
39890;SDS011;25564;53.312;9.790;2024-02-21T04:22:38;24.87;;;13.33;;
39890;SDS011;25564;53.312;9.790;2024-02-21T04:25:09;30.90;;;12.97;;
39890;SDS011;25564;53.312;9.790;2024-02-21T04:27:41;27.53;;;12.73;;
39890;SDS011;25564;53.312;9.790;2024-02-21T04:30:13;31.20;;;13.10;;
39890;SDS011;25564;53.312;9.790;2024-02-21T04:32:44;31.83;;;14.43;;
39890;SDS011;25564;53.312;9.790;2024-02-21T04:35:16;37.90;;;13.33;;
39890;SDS011;25564;53.312;9.790;2024-02-21T04:37:48;35.80;;;14.67;;
39890;SDS011;25564;53.312;9.790;2024-02-21T04:40:20;29.60;;;12.90;;
39890;SDS011;25564;53.312;9.790;2024-02-21T04:42:52;34.30;;;13.67;;
39890;SDS011;25564;53.312;9.790;2024-02-21T04:45:23;32.20;;;13.37;;
39890;SDS011;25564;53.312;9.790;2024-02-21T04:47:55;38.10;;;13.97;;
39890;SDS011;25564;53.312;9.790;2024-02-21T04:50:26;33.57;;;14.57;;
39890;SDS011;25564;53.312;9.790;2024-02-21T04:52:58;39.80;;;14.73;;
39890;SDS011;25564;53.312;9.790;2024-02-21T04:55:30;35.37;;;15.27;;
39890;SDS011;25564;53.312;9.790;2024-02-21T04:58:01;36.37;;;14.00;;
39890;SDS011;25564;53.312;9.790;2024-02-21T05:00:33;30.07;;;13.70;;
39890;SDS011;25564;53.312;9.790;2024-02-21T05:03:05;35.47;;;13.10;;
39890;SDS011;25564;53.312;9.790;2024-02-21T05:05:36;33.23;;;13.37;;
39890;SDS011;25564;53.312;9.790;2024-02-21T05:08:09;32.80;;;12.97;;
39890;SDS011;25564;53.312;9.790;2024-02-21T05:10:41;30.50;;;13.33;;
39890;SDS011;25564;53.312;9.790;2024-02-21T05:13:13;29.90;;;12.20;;
39890;SDS011;25564;53.312;9.790;2024-02-21T05:15:45;28.80;;;12.10;;
39890;SDS011;25564;53.312;9.790;2024-02-21T05:18:16;30.33;;;13.30;;
39890;SDS011;25564;53.312;9.790;2024-02-21T05:20:48;30.23;;;13.63;;
39890;SDS011;25564;53.312;9.790;2024-02-21T05:23:19;34.23;;;12.90;;
39890;SDS011;25564;53.312;9.790;2024-02-21T05:25:50;30.17;;;13.07;;
39890;SDS011;25564;53.312;9.790;2024-02-21T05:28:22;29.80;;;12.77;;
39890;SDS011;25564;53.312;9.790;2024-02-21T05:30:54;28.30;;;10.70;;
39890;SDS011;25564;53.312;9.790;2024-02-21T05:33:26;25.83;;;11.50;;
39890;SDS011;25564;53.312;9.790;2024-02-21T05:35:57;25.23;;;11.10;;
39890;SDS011;25564;53.312;9.790;2024-02-21T05:38:29;24.93;;;10.93;;
39890;SDS011;25564;53.312;9.790;2024-02-21T05:41:00;27.23;;;11.77;;
39890;SDS011;25564;53.312;9.790;2024-02-21T05:43:32;25.53;;;11.53;;
39890;SDS011;25564;53.312;9.790;2024-02-21T05:46:04;27.63;;;10.67;;
39890;SDS011;25564;53.312;9.790;2024-02-21T05:48:36;25.50;;;10.20;;
39890;SDS011;25564;53.312;9.790;2024-02-21T05:51:10;21.60;;;9.97;;
39890;SDS011;25564;53.312;9.790;2024-02-21T05:53:41;22.30;;;9.93;;
39890;SDS011;25564;53.312;9.790;2024-02-21T05:56:13;24.20;;;9.80;;
39890;SDS011;25564;53.312;9.790;2024-02-21T05:58:45;25.40;;;10.83;;
39890;SDS011;25564;53.312;9.790;2024-02-21T06:01:16;21.30;;;9.80;;
39890;SDS011;25564;53.312;9.790;2024-02-21T06:03:49;22.13;;;10.30;;
39890;SDS011;25564;53.312;9.790;2024-02-21T06:06:21;21.00;;;9.73;;
39890;SDS011;25564;53.312;9.790;2024-02-21T06:08:56;18.58;;;8.93;;
39890;SDS011;25564;53.312;9.790;2024-02-21T06:11:29;22.90;;;9.70;;
39890;SDS011;25564;53.312;9.790;2024-02-21T06:14:01;26.03;;;10.90;;
39890;SDS011;25564;53.312;9.790;2024-02-21T06:16:33;18.60;;;8.87;;
39890;SDS011;25564;53.312;9.790;2024-02-21T06:19:06;21.97;;;9.10;;
39890;SDS011;25564;53.312;9.790;2024-02-21T06:21:40;20.57;;;9.03;;
39890;SDS011;25564;53.312;9.790;2024-02-21T06:24:12;20.87;;;8.53;;
39890;SDS011;25564;53.312;9.790;2024-02-21T06:26:43;20.77;;;8.60;;
39890;SDS011;25564;53.312;9.790;2024-02-21T06:29:15;19.60;;;8.53;;
39890;SDS011;25564;53.312;9.790;2024-02-21T06:31:47;17.67;;;8.50;;
39890;SDS011;25564;53.312;9.790;2024-02-21T06:34:18;20.27;;;9.20;;
39890;SDS011;25564;53.312;9.790;2024-02-21T06:36:50;20.93;;;8.30;;
39890;SDS011;25564;53.312;9.790;2024-02-21T06:39:23;13.97;;;7.60;;
39890;SDS011;25564;53.312;9.790;2024-02-21T06:41:54;19.27;;;8.77;;
39890;SDS011;25564;53.312;9.790;2024-02-21T06:44:29;17.13;;;8.10;;
39890;SDS011;25564;53.312;9.790;2024-02-21T06:47:01;20.60;;;7.50;;
39890;SDS011;25564;53.312;9.790;2024-02-21T06:49:33;16.53;;;7.57;;
39890;SDS011;25564;53.312;9.790;2024-02-21T06:52:06;14.83;;;7.33;;
39890;SDS011;25564;53.312;9.790;2024-02-21T06:54:37;16.20;;;7.13;;
39890;SDS011;25564;53.312;9.790;2024-02-21T06:57:11;15.10;;;7.10;;
39890;SDS011;25564;53.312;9.790;2024-02-21T06:59:42;14.07;;;6.50;;
39890;SDS011;25564;53.312;9.790;2024-02-21T07:02:14;18.30;;;6.70;;
39890;SDS011;25564;53.312;9.790;2024-02-21T07:04:45;13.40;;;6.97;;
39890;SDS011;25564;53.312;9.790;2024-02-21T07:07:17;13.27;;;5.97;;
39890;SDS011;25564;53.312;9.790;2024-02-21T07:09:49;17.53;;;6.37;;
39890;SDS011;25564;53.312;9.790;2024-02-21T07:12:20;11.70;;;5.47;;
39890;SDS011;25564;53.312;9.790;2024-02-21T07:14:52;11.73;;;5.50;;
39890;SDS011;25564;53.312;9.790;2024-02-21T07:17:23;16.53;;;6.57;;
39890;SDS011;25564;53.312;9.790;2024-02-21T07:19:55;14.50;;;6.20;;
39890;SDS011;25564;53.312;9.790;2024-02-21T07:22:28;11.93;;;6.37;;
39890;SDS011;25564;53.312;9.790;2024-02-21T07:24:59;13.57;;;6.10;;
39890;SDS011;25564;53.312;9.790;2024-02-21T07:27:34;13.63;;;6.77;;
39890;SDS011;25564;53.312;9.790;2024-02-21T07:30:06;13.73;;;6.40;;
39890;SDS011;25564;53.312;9.790;2024-02-21T07:32:38;11.83;;;5.87;;
39890;SDS011;25564;53.312;9.790;2024-02-21T07:35:09;10.90;;;5.20;;
39890;SDS011;25564;53.312;9.790;2024-02-21T07:37:44;12.73;;;5.23;;
39890;SDS011;25564;53.312;9.790;2024-02-21T07:40:16;11.97;;;5.07;;
39890;SDS011;25564;53.312;9.790;2024-02-21T07:42:48;9.80;;;5.10;;
39890;SDS011;25564;53.312;9.790;2024-02-21T07:45:22;12.47;;;6.70;;
39890;SDS011;25564;53.312;9.790;2024-02-21T07:47:55;11.43;;;5.30;;
39890;SDS011;25564;53.312;9.790;2024-02-21T07:50:26;11.93;;;5.53;;
39890;SDS011;25564;53.312;9.790;2024-02-21T07:52:58;15.43;;;6.40;;
39890;SDS011;25564;53.312;9.790;2024-02-21T07:55:29;11.63;;;5.73;;
39890;SDS011;25564;53.312;9.790;2024-02-21T07:58:02;10.90;;;5.43;;
39890;SDS011;25564;53.312;9.790;2024-02-21T08:00:34;11.83;;;5.23;;
39890;SDS011;25564;53.312;9.790;2024-02-21T08:03:05;11.50;;;5.63;;
39890;SDS011;25564;53.312;9.790;2024-02-21T08:05:37;8.87;;;5.17;;
39890;SDS011;25564;53.312;9.790;2024-02-21T08:08:08;10.83;;;5.83;;
39890;SDS011;25564;53.312;9.790;2024-02-21T08:10:40;11.00;;;5.30;;
39890;SDS011;25564;53.312;9.790;2024-02-21T08:13:11;13.57;;;6.07;;
39890;SDS011;25564;53.312;9.790;2024-02-21T08:15:42;11.00;;;4.77;;
39890;SDS011;25564;53.312;9.790;2024-02-21T08:18:14;16.03;;;5.90;;
39890;SDS011;25564;53.312;9.790;2024-02-21T08:20:45;12.77;;;5.67;;
39890;SDS011;25564;53.312;9.790;2024-02-21T08:23:17;9.87;;;4.87;;
39890;SDS011;25564;53.312;9.790;2024-02-21T08:25:49;10.53;;;4.93;;
39890;SDS011;25564;53.312;9.790;2024-02-21T08:28:21;10.40;;;4.87;;
39890;SDS011;25564;53.312;9.790;2024-02-21T08:30:52;11.30;;;5.77;;
39890;SDS011;25564;53.312;9.790;2024-02-21T08:33:24;10.47;;;5.23;;
39890;SDS011;25564;53.312;9.790;2024-02-21T08:35:56;13.03;;;5.90;;
39890;SDS011;25564;53.312;9.790;2024-02-21T08:38:28;10.37;;;5.47;;
39890;SDS011;25564;53.312;9.790;2024-02-21T08:41:00;11.43;;;5.13;;
39890;SDS011;25564;53.312;9.790;2024-02-21T08:43:32;12.43;;;6.17;;
39890;SDS011;25564;53.312;9.790;2024-02-21T08:46:05;11.43;;;5.87;;
39890;SDS011;25564;53.312;9.790;2024-02-21T08:48:37;14.07;;;6.67;;
39890;SDS011;25564;53.312;9.790;2024-02-21T08:51:08;12.93;;;6.10;;
39890;SDS011;25564;53.312;9.790;2024-02-21T08:53:40;12.47;;;6.20;;
39890;SDS011;25564;53.312;9.790;2024-02-21T08:56:12;12.17;;;6.13;;
39890;SDS011;25564;53.312;9.790;2024-02-21T08:58:44;14.17;;;6.70;;
39890;SDS011;25564;53.312;9.790;2024-02-21T09:01:17;14.87;;;6.90;;
39890;SDS011;25564;53.312;9.790;2024-02-21T09:03:49;15.83;;;7.43;;
39890;SDS011;25564;53.312;9.790;2024-02-21T09:08:58;16.87;;;7.77;;
39890;SDS011;25564;53.312;9.790;2024-02-21T09:11:30;16.07;;;6.90;;
39890;SDS011;25564;53.312;9.790;2024-02-21T09:14:01;13.77;;;7.43;;
39890;SDS011;25564;53.312;9.790;2024-02-21T09:16:35;19.77;;;8.40;;
39890;SDS011;25564;53.312;9.790;2024-02-21T09:19:06;18.37;;;8.90;;
39890;SDS011;25564;53.312;9.790;2024-02-21T09:21:41;17.73;;;8.25;;
39890;SDS011;25564;53.312;9.790;2024-02-21T09:24:13;19.90;;;9.60;;
39890;SDS011;25564;53.312;9.790;2024-02-21T09:26:45;25.57;;;10.20;;
39890;SDS011;25564;53.312;9.790;2024-02-21T09:29:17;24.13;;;11.17;;
39890;SDS011;25564;53.312;9.790;2024-02-21T09:31:53;26.02;;;10.32;;
39890;SDS011;25564;53.312;9.790;2024-02-21T09:34:24;28.70;;;11.07;;
39890;SDS011;25564;53.312;9.790;2024-02-21T09:36:56;26.67;;;10.80;;
39890;SDS011;25564;53.312;9.790;2024-02-21T09:39:27;25.80;;;11.13;;
39890;SDS011;25564;53.312;9.790;2024-02-21T09:42:00;27.90;;;12.63;;
39890;SDS011;25564;53.312;9.790;2024-02-21T09:44:37;24.57;;;11.57;;
39890;SDS011;25564;53.312;9.790;2024-02-21T09:47:10;38.07;;;12.83;;
39890;SDS011;25564;53.312;9.790;2024-02-21T09:49:50;30.50;;;12.77;;
39890;SDS011;25564;53.312;9.790;2024-02-21T09:52:23;30.03;;;12.83;;
39890;SDS011;25564;53.312;9.790;2024-02-21T09:54:58;30.23;;;13.83;;
39890;SDS011;25564;53.312;9.790;2024-02-21T09:57:30;37.33;;;13.33;;
39890;SDS011;25564;53.312;9.790;2024-02-21T10:00:03;28.50;;;12.03;;
39890;SDS011;25564;53.312;9.790;2024-02-21T10:02:39;31.83;;;12.57;;
39890;SDS011;25564;53.312;9.790;2024-02-21T10:05:11;33.03;;;12.03;;
39890;SDS011;25564;53.312;9.790;2024-02-21T10:07:43;27.80;;;11.40;;
39890;SDS011;25564;53.312;9.790;2024-02-21T10:10:16;25.60;;;11.47;;
39890;SDS011;25564;53.312;9.790;2024-02-21T10:12:48;30.47;;;11.07;;
39890;SDS011;25564;53.312;9.790;2024-02-21T10:15:21;25.50;;;11.03;;
39890;SDS011;25564;53.312;9.790;2024-02-21T10:17:58;26.07;;;11.30;;
39890;SDS011;25564;53.312;9.790;2024-02-21T10:20:32;21.83;;;10.03;;
39890;SDS011;25564;53.312;9.790;2024-02-21T10:23:05;21.50;;;9.90;;
39890;SDS011;25564;53.312;9.790;2024-02-21T10:25:40;22.35;;;10.43;;
39890;SDS011;25564;53.312;9.790;2024-02-21T10:28:16;19.08;;;9.15;;
39890;SDS011;25564;53.312;9.790;2024-02-21T10:30:50;25.00;;;9.47;;
39890;SDS011;25564;53.312;9.790;2024-02-21T10:33:22;23.53;;;9.57;;
39890;SDS011;25564;53.312;9.790;2024-02-21T10:36:05;23.47;;;9.37;;
39890;SDS011;25564;53.312;9.790;2024-02-21T10:38:38;18.23;;;8.67;;
39890;SDS011;25564;53.312;9.790;2024-02-21T10:41:10;23.73;;;8.27;;
39890;SDS011;25564;53.312;9.790;2024-02-21T10:43:49;16.83;;;8.40;;
39890;SDS011;25564;53.312;9.790;2024-02-21T10:46:28;23.27;;;8.10;;
39890;SDS011;25564;53.312;9.790;2024-02-21T10:52:28;21.43;;;9.23;;
39890;SDS011;25564;53.312;9.790;2024-02-21T10:55:00;22.40;;;8.93;;
39890;SDS011;25564;53.312;9.790;2024-02-21T10:57:35;18.60;;;8.10;;
39890;SDS011;25564;53.312;9.790;2024-02-21T11:00:09;24.00;;;8.83;;
39890;SDS011;25564;53.312;9.790;2024-02-21T11:02:44;20.73;;;8.40;;
39890;SDS011;25564;53.312;9.790;2024-02-21T11:05:17;23.17;;;8.50;;
39890;SDS011;25564;53.312;9.790;2024-02-21T11:07:49;19.83;;;8.87;;
39890;SDS011;25564;53.312;9.790;2024-02-21T11:10:24;20.73;;;9.80;;
39890;SDS011;25564;53.312;9.790;2024-02-21T11:13:08;19.27;;;8.97;;
39890;SDS011;25564;53.312;9.790;2024-02-21T11:15:40;23.63;;;8.57;;
39890;SDS011;25564;53.312;9.790;2024-02-21T11:18:12;22.83;;;9.23;;
39890;SDS011;25564;53.312;9.790;2024-02-21T11:20:55;19.93;;;8.37;;
39890;SDS011;25564;53.312;9.790;2024-02-21T11:23:26;25.33;;;9.17;;
39890;SDS011;25564;53.312;9.790;2024-02-21T11:26:07;18.33;;;8.23;;
39890;SDS011;25564;53.312;9.790;2024-02-21T11:29:00;24.57;;;9.53;;
39890;SDS011;25564;53.312;9.790;2024-02-21T11:31:43;19.50;;;9.47;;
39890;SDS011;25564;53.312;9.790;2024-02-21T11:34:18;21.37;;;9.03;;
39890;SDS011;25564;53.312;9.790;2024-02-21T11:36:51;21.70;;;8.83;;
39890;SDS011;25564;53.312;9.790;2024-02-21T11:39:24;22.30;;;9.90;;
39890;SDS011;25564;53.312;9.790;2024-02-21T11:42:06;25.17;;;9.93;;
39890;SDS011;25564;53.312;9.790;2024-02-21T11:44:39;26.20;;;9.30;;
39890;SDS011;25564;53.312;9.790;2024-02-21T11:47:11;20.43;;;9.87;;
39890;SDS011;25564;53.312;9.790;2024-02-21T11:49:43;22.23;;;9.97;;
39890;SDS011;25564;53.312;9.790;2024-02-21T11:52:17;18.43;;;8.50;;
39890;SDS011;25564;53.312;9.790;2024-02-21T11:54:54;23.47;;;9.27;;
39890;SDS011;25564;53.312;9.790;2024-02-21T11:57:27;18.43;;;8.43;;
39890;SDS011;25564;53.312;9.790;2024-02-21T11:59:58;23.83;;;9.60;;
39890;SDS011;25564;53.312;9.790;2024-02-21T12:02:34;22.85;;;9.63;;
39890;SDS011;25564;53.312;9.790;2024-02-21T12:05:07;25.83;;;9.40;;
39890;SDS011;25564;53.312;9.790;2024-02-21T12:07:39;18.53;;;9.70;;
39890;SDS011;25564;53.312;9.790;2024-02-21T12:10:12;17.83;;;9.40;;
39890;SDS011;25564;53.312;9.790;2024-02-21T12:12:44;26.10;;;9.73;;
39890;SDS011;25564;53.312;9.790;2024-02-21T12:15:15;20.27;;;9.43;;
39890;SDS011;25564;53.312;9.790;2024-02-21T12:17:49;17.77;;;8.70;;
39890;SDS011;25564;53.312;9.790;2024-02-21T12:20:23;21.43;;;9.20;;
39890;SDS011;25564;53.312;9.790;2024-02-21T12:22:55;20.00;;;9.37;;
39890;SDS011;25564;53.312;9.790;2024-02-21T12:25:26;20.10;;;9.10;;
39890;SDS011;25564;53.312;9.790;2024-02-21T12:27:59;21.70;;;8.73;;
39890;SDS011;25564;53.312;9.790;2024-02-21T12:30:31;18.07;;;8.50;;
39890;SDS011;25564;53.312;9.790;2024-02-21T12:33:04;18.10;;;9.23;;
39890;SDS011;25564;53.312;9.790;2024-02-21T12:35:36;23.10;;;9.20;;
39890;SDS011;25564;53.312;9.790;2024-02-21T12:38:07;19.07;;;9.03;;
39890;SDS011;25564;53.312;9.790;2024-02-21T12:40:39;26.03;;;9.13;;
39890;SDS011;25564;53.312;9.790;2024-02-21T12:43:10;19.07;;;8.30;;
39890;SDS011;25564;53.312;9.790;2024-02-21T12:45:42;19.17;;;8.23;;
39890;SDS011;25564;53.312;9.790;2024-02-21T12:48:13;20.63;;;8.63;;
39890;SDS011;25564;53.312;9.790;2024-02-21T12:50:49;14.43;;;8.33;;
39890;SDS011;25564;53.312;9.790;2024-02-21T12:53:22;16.87;;;7.97;;
39890;SDS011;25564;53.312;9.790;2024-02-21T12:56:03;16.43;;;7.90;;
39890;SDS011;25564;53.312;9.790;2024-02-21T12:58:36;15.93;;;8.80;;
39890;SDS011;25564;53.312;9.790;2024-02-21T13:01:08;16.03;;;7.63;;
39890;SDS011;25564;53.312;9.790;2024-02-21T13:03:40;14.80;;;7.47;;
39890;SDS011;25564;53.312;9.790;2024-02-21T13:06:11;16.80;;;7.70;;
39890;SDS011;25564;53.312;9.790;2024-02-21T13:08:44;16.30;;;7.67;;
39890;SDS011;25564;53.312;9.790;2024-02-21T13:11:17;17.10;;;7.27;;
39890;SDS011;25564;53.312;9.790;2024-02-21T13:13:48;15.93;;;7.40;;
39890;SDS011;25564;53.312;9.790;2024-02-21T13:16:20;13.03;;;6.37;;
39890;SDS011;25564;53.312;9.790;2024-02-21T13:18:51;12.87;;;7.20;;
39890;SDS011;25564;53.312;9.790;2024-02-21T13:21:23;13.83;;;7.23;;
39890;SDS011;25564;53.312;9.790;2024-02-21T13:23:54;14.97;;;6.97;;
39890;SDS011;25564;53.312;9.790;2024-02-21T13:26:27;14.33;;;7.27;;
39890;SDS011;25564;53.312;9.790;2024-02-21T13:28:58;16.93;;;6.50;;
39890;SDS011;25564;53.312;9.790;2024-02-21T13:31:30;13.33;;;6.20;;
39890;SDS011;25564;53.312;9.790;2024-02-21T13:34:01;13.50;;;6.00;;
39890;SDS011;25564;53.312;9.790;2024-02-21T13:36:33;11.30;;;5.90;;
39890;SDS011;25564;53.312;9.790;2024-02-21T13:39:06;11.00;;;6.63;;
39890;SDS011;25564;53.312;9.790;2024-02-21T13:41:39;14.80;;;6.37;;
39890;SDS011;25564;53.312;9.790;2024-02-21T13:44:11;11.63;;;6.17;;
39890;SDS011;25564;53.312;9.790;2024-02-21T13:46:44;10.63;;;6.57;;
39890;SDS011;25564;53.312;9.790;2024-02-21T13:49:15;13.80;;;6.37;;
39890;SDS011;25564;53.312;9.790;2024-02-21T13:51:47;16.13;;;6.87;;
39890;SDS011;25564;53.312;9.790;2024-02-21T13:54:18;15.87;;;7.10;;
39890;SDS011;25564;53.312;9.790;2024-02-21T13:56:50;12.03;;;7.17;;
39890;SDS011;25564;53.312;9.790;2024-02-21T13:59:22;9.20;;;5.70;;
39890;SDS011;25564;53.312;9.790;2024-02-21T14:01:55;10.63;;;6.13;;
39890;SDS011;25564;53.312;9.790;2024-02-21T14:04:27;16.33;;;6.43;;
39890;SDS011;25564;53.312;9.790;2024-02-21T14:06:58;9.73;;;6.10;;
39890;SDS011;25564;53.312;9.790;2024-02-21T14:09:30;12.30;;;6.70;;
39890;SDS011;25564;53.312;9.790;2024-02-21T14:12:02;9.80;;;5.10;;
39890;SDS011;25564;53.312;9.790;2024-02-21T14:14:36;7.13;;;4.90;;
39890;SDS011;25564;53.312;9.790;2024-02-21T14:17:10;8.40;;;4.90;;
39890;SDS011;25564;53.312;9.790;2024-02-21T14:19:42;7.73;;;4.70;;
39890;SDS011;25564;53.312;9.790;2024-02-21T14:22:14;14.13;;;6.23;;
39890;SDS011;25564;53.312;9.790;2024-02-21T14:24:45;9.17;;;4.70;;
39890;SDS011;25564;53.312;9.790;2024-02-21T14:27:17;12.57;;;4.60;;
39890;SDS011;25564;53.312;9.790;2024-02-21T14:29:49;7.67;;;4.50;;
39890;SDS011;25564;53.312;9.790;2024-02-21T14:32:21;7.67;;;3.90;;
39890;SDS011;25564;53.312;9.790;2024-02-21T14:34:52;8.23;;;3.97;;
39890;SDS011;25564;53.312;9.790;2024-02-21T14:37:23;13.70;;;4.40;;
39890;SDS011;25564;53.312;9.790;2024-02-21T14:39:55;8.13;;;4.47;;
39890;SDS011;25564;53.312;9.790;2024-02-21T14:42:27;11.37;;;3.97;;
39890;SDS011;25564;53.312;9.790;2024-02-21T14:44:59;9.87;;;4.00;;
39890;SDS011;25564;53.312;9.790;2024-02-21T14:47:36;7.10;;;4.40;;
39890;SDS011;25564;53.312;9.790;2024-02-21T14:50:07;7.97;;;4.20;;
39890;SDS011;25564;53.312;9.790;2024-02-21T14:52:39;7.47;;;3.70;;
39890;SDS011;25564;53.312;9.790;2024-02-21T14:55:12;9.10;;;4.23;;
39890;SDS011;25564;53.312;9.790;2024-02-21T14:57:45;10.50;;;4.37;;
39890;SDS011;25564;53.312;9.790;2024-02-21T15:00:17;7.23;;;3.93;;
39890;SDS011;25564;53.312;9.790;2024-02-21T15:02:49;7.07;;;4.30;;
39890;SDS011;25564;53.312;9.790;2024-02-21T15:05:21;8.50;;;4.90;;
39890;SDS011;25564;53.312;9.790;2024-02-21T15:07:55;7.97;;;4.37;;
39890;SDS011;25564;53.312;9.790;2024-02-21T15:10:27;7.13;;;4.03;;